sensor_id;sensor_type;location;lat;lon;timestamp;temperature;humidity
20376;DHT22;10347;51.828;6.466;2022-09-03T00:01:19;21.10;71.00
20376;DHT22;10347;51.828;6.466;2022-09-03T00:03:51;21.00;70.90
20376;DHT22;10347;51.828;6.466;2022-09-03T00:06:27;21.00;71.00
20376;DHT22;10347;51.828;6.466;2022-09-03T00:09:25;21.00;71.30
20376;DHT22;10347;51.828;6.466;2022-09-03T00:14:54;20.90;71.60
20376;DHT22;10347;51.828;6.466;2022-09-03T00:17:26;20.90;71.90
20376;DHT22;10347;51.828;6.466;2022-09-03T00:20:04;20.80;71.80
20376;DHT22;10347;51.828;6.466;2022-09-03T00:22:44;20.80;71.90
20376;DHT22;10347;51.828;6.466;2022-09-03T00:25:14;20.80;72.00
20376;DHT22;10347;51.828;6.466;2022-09-03T00:27:42;20.70;72.00
20376;DHT22;10347;51.828;6.466;2022-09-03T00:30:13;20.70;72.10
20376;DHT22;10347;51.828;6.466;2022-09-03T00:33:03;20.70;72.30
20376;DHT22;10347;51.828;6.466;2022-09-03T00:35:46;20.60;72.90
20376;DHT22;10347;51.828;6.466;2022-09-03T00:38:14;20.60;72.60
20376;DHT22;10347;51.828;6.466;2022-09-03T00:41:16;20.50;72.60
20376;DHT22;10347;51.828;6.466;2022-09-03T00:46:46;20.50;73.30
20376;DHT22;10347;51.828;6.466;2022-09-03T00:55:01;20.40;73.70
20376;DHT22;10347;51.828;6.466;2022-09-03T01:00:12;20.30;73.70
20376;DHT22;10347;51.828;6.466;2022-09-03T01:08:24;20.20;74.20
20376;DHT22;10347;51.828;6.466;2022-09-03T01:22:18;20.10;74.60
20376;DHT22;10347;51.828;6.466;2022-09-03T01:25:24;20.10;74.80
20376;DHT22;10347;51.828;6.466;2022-09-03T01:30:29;20.00;75.10
20376;DHT22;10347;51.828;6.466;2022-09-03T01:35:54;20.00;75.30
20376;DHT22;10347;51.828;6.466;2022-09-03T01:38:34;20.00;75.30
20376;DHT22;10347;51.828;6.466;2022-09-03T01:50:13;19.80;76.00
20376;DHT22;10347;51.828;6.466;2022-09-03T01:52:54;19.80;76.60
20376;DHT22;10347;51.828;6.466;2022-09-03T01:55:39;19.80;76.10
20376;DHT22;10347;51.828;6.466;2022-09-03T01:58:13;19.80;76.30
20376;DHT22;10347;51.828;6.466;2022-09-03T02:00:42;19.70;76.20
20376;DHT22;10347;51.828;6.466;2022-09-03T02:03:09;19.60;76.30
20376;DHT22;10347;51.828;6.466;2022-09-03T02:05:35;19.70;76.40
20376;DHT22;10347;51.828;6.466;2022-09-03T02:08:07;19.70;76.50
20376;DHT22;10347;51.828;6.466;2022-09-03T02:10:44;19.60;76.60
20376;DHT22;10347;51.828;6.466;2022-09-03T02:13:24;19.60;76.80
20376;DHT22;10347;51.828;6.466;2022-09-03T02:15:52;19.60;76.80
20376;DHT22;10347;51.828;6.466;2022-09-03T02:18:25;19.60;76.90
20376;DHT22;10347;51.828;6.466;2022-09-03T02:20:53;19.60;77.20
20376;DHT22;10347;51.828;6.466;2022-09-03T02:23:19;19.50;77.10
20376;DHT22;10347;51.828;6.466;2022-09-03T02:25:49;19.50;77.10
20376;DHT22;10347;51.828;6.466;2022-09-03T02:28:15;19.50;77.30
20376;DHT22;10347;51.828;6.466;2022-09-03T02:30:42;19.50;77.30
20376;DHT22;10347;51.828;6.466;2022-09-03T02:33:08;19.50;77.40
20376;DHT22;10347;51.828;6.466;2022-09-03T02:35:33;19.40;77.50
20376;DHT22;10347;51.828;6.466;2022-09-03T02:38:18;19.40;77.60
20376;DHT22;10347;51.828;6.466;2022-09-03T02:40:44;19.40;78.10
20376;DHT22;10347;51.828;6.466;2022-09-03T02:46:01;19.40;78.40
20376;DHT22;10347;51.828;6.466;2022-09-03T02:48:28;19.30;78.10
20376;DHT22;10347;51.828;6.466;2022-09-03T02:50:54;19.30;78.00
20376;DHT22;10347;51.828;6.466;2022-09-03T02:53:20;19.30;78.10
20376;DHT22;10347;51.828;6.466;2022-09-03T02:55:46;19.30;78.90
20376;DHT22;10347;51.828;6.466;2022-09-03T02:58:12;19.20;78.20
20376;DHT22;10347;51.828;6.466;2022-09-03T03:00:37;19.20;78.20
20376;DHT22;10347;51.828;6.466;2022-09-03T03:03:04;19.30;78.30
20376;DHT22;10347;51.828;6.466;2022-09-03T03:05:50;19.20;78.30
20376;DHT22;10347;51.828;6.466;2022-09-03T03:08:18;19.20;78.80
20376;DHT22;10347;51.828;6.466;2022-09-03T03:10:46;19.10;78.50
20376;DHT22;10347;51.828;6.466;2022-09-03T03:13:13;19.20;78.70
20376;DHT22;10347;51.828;6.466;2022-09-03T03:15:39;19.10;78.80
20376;DHT22;10347;51.828;6.466;2022-09-03T03:18:05;19.10;78.80
20376;DHT22;10347;51.828;6.466;2022-09-03T03:20:32;19.10;79.00
20376;DHT22;10347;51.828;6.466;2022-09-03T03:23:01;19.00;79.00
20376;DHT22;10347;51.828;6.466;2022-09-03T03:25:26;19.00;79.00
20376;DHT22;10347;51.828;6.466;2022-09-03T03:27:54;19.00;79.10
20376;DHT22;10347;51.828;6.466;2022-09-03T03:30:21;18.90;79.40
20376;DHT22;10347;51.828;6.466;2022-09-03T03:32:48;18.90;79.40
20376;DHT22;10347;51.828;6.466;2022-09-03T03:35:13;18.90;79.40
20376;DHT22;10347;51.828;6.466;2022-09-03T03:37:39;18.90;79.40
20376;DHT22;10347;51.828;6.466;2022-09-03T03:40:06;18.90;79.60
20376;DHT22;10347;51.828;6.466;2022-09-03T03:42:34;18.80;79.70
20376;DHT22;10347;51.828;6.466;2022-09-03T03:45:00;18.80;79.70
20376;DHT22;10347;51.828;6.466;2022-09-03T03:47:27;18.80;79.80
20376;DHT22;10347;51.828;6.466;2022-09-03T03:49:55;18.80;80.00
20376;DHT22;10347;51.828;6.466;2022-09-03T03:52:21;18.80;80.10
20376;DHT22;10347;51.828;6.466;2022-09-03T03:54:47;18.80;80.20
20376;DHT22;10347;51.828;6.466;2022-09-03T03:57:14;18.70;80.30
20376;DHT22;10347;51.828;6.466;2022-09-03T03:59:40;18.70;80.40
20376;DHT22;10347;51.828;6.466;2022-09-03T04:02:06;18.70;80.50
20376;DHT22;10347;51.828;6.466;2022-09-03T04:04:31;18.70;80.60
20376;DHT22;10347;51.828;6.466;2022-09-03T04:06:57;18.70;80.60
20376;DHT22;10347;51.828;6.466;2022-09-03T04:09:23;18.60;80.70
20376;DHT22;10347;51.828;6.466;2022-09-03T04:11:48;18.60;80.90
20376;DHT22;10347;51.828;6.466;2022-09-03T04:14:15;18.60;81.00
20376;DHT22;10347;51.828;6.466;2022-09-03T04:16:42;18.50;81.10
20376;DHT22;10347;51.828;6.466;2022-09-03T04:19:11;18.50;81.30
20376;DHT22;10347;51.828;6.466;2022-09-03T04:21:37;18.40;81.30
20376;DHT22;10347;51.828;6.466;2022-09-03T04:24:03;18.40;81.40
20376;DHT22;10347;51.828;6.466;2022-09-03T04:26:30;18.40;81.30
20376;DHT22;10347;51.828;6.466;2022-09-03T04:28:58;18.50;81.50
20376;DHT22;10347;51.828;6.466;2022-09-03T04:31:26;18.40;81.40
20376;DHT22;10347;51.828;6.466;2022-09-03T04:33:51;18.40;81.60
20376;DHT22;10347;51.828;6.466;2022-09-03T04:36:19;18.40;81.70
20376;DHT22;10347;51.828;6.466;2022-09-03T04:38:47;18.40;81.90
20376;DHT22;10347;51.828;6.466;2022-09-03T04:41:16;18.40;81.90
20376;DHT22;10347;51.828;6.466;2022-09-03T04:43:42;18.30;82.10
20376;DHT22;10347;51.828;6.466;2022-09-03T04:46:09;18.30;81.90
20376;DHT22;10347;51.828;6.466;2022-09-03T04:48:35;18.30;82.10
20376;DHT22;10347;51.828;6.466;2022-09-03T04:51:06;18.30;82.20
20376;DHT22;10347;51.828;6.466;2022-09-03T04:53:35;18.30;82.30
20376;DHT22;10347;51.828;6.466;2022-09-03T04:56:01;18.30;82.40
20376;DHT22;10347;51.828;6.466;2022-09-03T04:58:26;18.30;82.40
20376;DHT22;10347;51.828;6.466;2022-09-03T05:00:52;18.30;82.50
20376;DHT22;10347;51.828;6.466;2022-09-03T05:03:18;18.30;82.60
20376;DHT22;10347;51.828;6.466;2022-09-03T05:05:54;18.20;82.60
20376;DHT22;10347;51.828;6.466;2022-09-03T05:08:20;18.30;82.90
20376;DHT22;10347;51.828;6.466;2022-09-03T05:10:46;18.20;82.70
20376;DHT22;10347;51.828;6.466;2022-09-03T05:13:11;18.20;82.80
20376;DHT22;10347;51.828;6.466;2022-09-03T05:15:37;18.20;82.90
20376;DHT22;10347;51.828;6.466;2022-09-03T05:18:03;18.20;83.00
20376;DHT22;10347;51.828;6.466;2022-09-03T05:20:29;18.10;83.30
20376;DHT22;10347;51.828;6.466;2022-09-03T05:22:56;18.20;83.40
20376;DHT22;10347;51.828;6.466;2022-09-03T05:25:22;18.10;84.20
20376;DHT22;10347;51.828;6.466;2022-09-03T05:27:48;18.10;83.40
20376;DHT22;10347;51.828;6.466;2022-09-03T05:30:14;18.10;83.60
20376;DHT22;10347;51.828;6.466;2022-09-03T05:32:40;18.10;83.90
20376;DHT22;10347;51.828;6.466;2022-09-03T05:35:07;18.10;83.90
20376;DHT22;10347;51.828;6.466;2022-09-03T05:37:33;18.10;84.20
20376;DHT22;10347;51.828;6.466;2022-09-03T05:39:59;18.00;84.00
20376;DHT22;10347;51.828;6.466;2022-09-03T05:42:24;18.00;84.20
20376;DHT22;10347;51.828;6.466;2022-09-03T05:44:52;18.00;84.40
20376;DHT22;10347;51.828;6.466;2022-09-03T05:47:19;18.00;84.60
20376;DHT22;10347;51.828;6.466;2022-09-03T05:49:44;18.00;84.60
20376;DHT22;10347;51.828;6.466;2022-09-03T05:52:10;18.00;85.00
20376;DHT22;10347;51.828;6.466;2022-09-03T05:54:35;18.00;85.30
20376;DHT22;10347;51.828;6.466;2022-09-03T05:57:01;18.00;85.40
20376;DHT22;10347;51.828;6.466;2022-09-03T05:59:26;18.00;85.50
20376;DHT22;10347;51.828;6.466;2022-09-03T06:01:52;18.00;85.50
20376;DHT22;10347;51.828;6.466;2022-09-03T06:04:18;18.00;85.70
20376;DHT22;10347;51.828;6.466;2022-09-03T06:06:45;18.00;85.90
20376;DHT22;10347;51.828;6.466;2022-09-03T06:09:16;18.00;85.80
20376;DHT22;10347;51.828;6.466;2022-09-03T06:11:43;18.00;86.10
20376;DHT22;10347;51.828;6.466;2022-09-03T06:14:11;18.00;86.30
20376;DHT22;10347;51.828;6.466;2022-09-03T06:16:43;18.00;86.30
20376;DHT22;10347;51.828;6.466;2022-09-03T06:19:10;18.00;86.50
20376;DHT22;10347;51.828;6.466;2022-09-03T06:21:41;18.10;86.50
20376;DHT22;10347;51.828;6.466;2022-09-03T06:24:17;18.10;86.60
20376;DHT22;10347;51.828;6.466;2022-09-03T06:26:44;18.10;86.70
20376;DHT22;10347;51.828;6.466;2022-09-03T06:29:10;18.10;86.80
20376;DHT22;10347;51.828;6.466;2022-09-03T06:31:37;18.10;86.80
20376;DHT22;10347;51.828;6.466;2022-09-03T06:34:03;18.10;87.00
20376;DHT22;10347;51.828;6.466;2022-09-03T06:36:29;18.20;87.00
20376;DHT22;10347;51.828;6.466;2022-09-03T06:38:55;18.20;87.00
20376;DHT22;10347;51.828;6.466;2022-09-03T06:41:23;18.20;87.20
20376;DHT22;10347;51.828;6.466;2022-09-03T06:43:54;18.30;87.00
20376;DHT22;10347;51.828;6.466;2022-09-03T06:46:22;18.20;87.10
20376;DHT22;10347;51.828;6.466;2022-09-03T06:48:48;18.20;87.10
20376;DHT22;10347;51.828;6.466;2022-09-03T06:51:23;18.30;87.10
20376;DHT22;10347;51.828;6.466;2022-09-03T06:53:51;18.30;87.60
20376;DHT22;10347;51.828;6.466;2022-09-03T06:56:20;18.40;87.50
20376;DHT22;10347;51.828;6.466;2022-09-03T06:58:56;18.40;87.20
20376;DHT22;10347;51.828;6.466;2022-09-03T07:01:27;18.50;87.30
20376;DHT22;10347;51.828;6.466;2022-09-03T07:03:57;18.50;87.30
20376;DHT22;10347;51.828;6.466;2022-09-03T07:06:24;18.50;87.20
20376;DHT22;10347;51.828;6.466;2022-09-03T07:08:50;18.60;87.20
20376;DHT22;10347;51.828;6.466;2022-09-03T07:11:18;18.60;87.30
20376;DHT22;10347;51.828;6.466;2022-09-03T07:13:46;18.70;87.40
20376;DHT22;10347;51.828;6.466;2022-09-03T07:16:14;18.70;87.10
20376;DHT22;10347;51.828;6.466;2022-09-03T07:18:40;18.80;87.10
20376;DHT22;10347;51.828;6.466;2022-09-03T07:21:09;18.80;86.90
20376;DHT22;10347;51.828;6.466;2022-09-03T07:23:36;18.90;87.10
20376;DHT22;10347;51.828;6.466;2022-09-03T07:26:04;18.90;87.20
20376;DHT22;10347;51.828;6.466;2022-09-03T07:28:31;19.00;87.00
20376;DHT22;10347;51.828;6.466;2022-09-03T07:31:12;19.10;87.00
20376;DHT22;10347;51.828;6.466;2022-09-03T07:33:38;19.10;86.60
20376;DHT22;10347;51.828;6.466;2022-09-03T07:36:06;19.20;86.30
20376;DHT22;10347;51.828;6.466;2022-09-03T07:38:35;19.20;86.40
20376;DHT22;10347;51.828;6.466;2022-09-03T07:41:06;19.30;86.70
20376;DHT22;10347;51.828;6.466;2022-09-03T07:43:35;19.30;86.70
20376;DHT22;10347;51.828;6.466;2022-09-03T07:46:01;19.40;86.30
20376;DHT22;10347;51.828;6.466;2022-09-03T07:48:27;19.50;86.10
20376;DHT22;10347;51.828;6.466;2022-09-03T07:51:00;19.50;86.60
20376;DHT22;10347;51.828;6.466;2022-09-03T07:53:27;19.60;85.70
20376;DHT22;10347;51.828;6.466;2022-09-03T07:55:53;19.60;85.90
20376;DHT22;10347;51.828;6.466;2022-09-03T07:58:19;19.70;85.70
20376;DHT22;10347;51.828;6.466;2022-09-03T08:00:49;19.80;85.80
20376;DHT22;10347;51.828;6.466;2022-09-03T08:03:14;19.80;85.70
20376;DHT22;10347;51.828;6.466;2022-09-03T08:05:41;19.90;85.50
20376;DHT22;10347;51.828;6.466;2022-09-03T08:08:06;20.00;85.40
20376;DHT22;10347;51.828;6.466;2022-09-03T08:10:36;20.10;85.30
20376;DHT22;10347;51.828;6.466;2022-09-03T08:13:03;20.10;84.80
20376;DHT22;10347;51.828;6.466;2022-09-03T08:15:32;20.20;84.60
20376;DHT22;10347;51.828;6.466;2022-09-03T08:17:59;20.30;85.00
20376;DHT22;10347;51.828;6.466;2022-09-03T08:20:25;20.30;84.70
20376;DHT22;10347;51.828;6.466;2022-09-03T08:22:51;20.40;84.50
20376;DHT22;10347;51.828;6.466;2022-09-03T08:25:16;20.50;83.50
20376;DHT22;10347;51.828;6.466;2022-09-03T08:27:42;20.50;83.30
20376;DHT22;10347;51.828;6.466;2022-09-03T08:30:08;20.60;83.40
20376;DHT22;10347;51.828;6.466;2022-09-03T08:32:37;20.70;83.40
20376;DHT22;10347;51.828;6.466;2022-09-03T08:35:05;20.80;83.30
20376;DHT22;10347;51.828;6.466;2022-09-03T08:37:31;20.80;83.50
20376;DHT22;10347;51.828;6.466;2022-09-03T08:39:57;20.90;83.60
20376;DHT22;10347;51.828;6.466;2022-09-03T08:42:48;21.00;82.30
20376;DHT22;10347;51.828;6.466;2022-09-03T08:45:20;21.10;81.80
20376;DHT22;10347;51.828;6.466;2022-09-03T08:50:24;21.30;82.70
20376;DHT22;10347;51.828;6.466;2022-09-03T08:52:52;21.40;82.50
20376;DHT22;10347;51.828;6.466;2022-09-03T08:55:26;21.50;82.40
20376;DHT22;10347;51.828;6.466;2022-09-03T08:58:07;21.60;81.90
20376;DHT22;10347;51.828;6.466;2022-09-03T09:22:38;22.50;79.70
20376;DHT22;10347;51.828;6.466;2022-09-03T09:25:11;22.60;78.30
20376;DHT22;10347;51.828;6.466;2022-09-03T09:27:50;22.80;79.30
20376;DHT22;10347;51.828;6.466;2022-09-03T09:30:17;22.80;77.70
20376;DHT22;10347;51.828;6.466;2022-09-03T09:32:43;22.90;78.30
20376;DHT22;10347;51.828;6.466;2022-09-03T09:35:10;23.00;78.60
20376;DHT22;10347;51.828;6.466;2022-09-03T09:37:53;23.00;78.40
20376;DHT22;10347;51.828;6.466;2022-09-03T09:40:33;23.20;77.70
20376;DHT22;10347;51.828;6.466;2022-09-03T09:43:04;23.30;76.10
20376;DHT22;10347;51.828;6.466;2022-09-03T09:45:30;23.30;75.80
20376;DHT22;10347;51.828;6.466;2022-09-03T09:47:58;23.30;76.10
20376;DHT22;10347;51.828;6.466;2022-09-03T09:50:24;23.40;75.90
20376;DHT22;10347;51.828;6.466;2022-09-03T09:53:01;23.50;76.50
20376;DHT22;10347;51.828;6.466;2022-09-03T09:55:29;23.60;75.50
20376;DHT22;10347;51.828;6.466;2022-09-03T09:58:06;23.60;75.90
20376;DHT22;10347;51.828;6.466;2022-09-03T10:00:34;23.80;75.20
20376;DHT22;10347;51.828;6.466;2022-09-03T10:03:06;23.90;75.10
20376;DHT22;10347;51.828;6.466;2022-09-03T10:05:35;23.90;75.00
20376;DHT22;10347;51.828;6.466;2022-09-03T10:08:20;24.00;75.30
20376;DHT22;10347;51.828;6.466;2022-09-03T10:10:48;24.00;75.60
20376;DHT22;10347;51.828;6.466;2022-09-03T10:13:18;24.10;75.00
20376;DHT22;10347;51.828;6.466;2022-09-03T10:16:05;24.20;75.20
20376;DHT22;10347;51.828;6.466;2022-09-03T10:18:54;24.30;75.40
20376;DHT22;10347;51.828;6.466;2022-09-03T10:21:40;24.50;74.90
20376;DHT22;10347;51.828;6.466;2022-09-03T10:26:40;24.70;74.40
20376;DHT22;10347;51.828;6.466;2022-09-03T10:29:19;24.80;74.40
20376;DHT22;10347;51.828;6.466;2022-09-03T10:37:39;25.00;73.30
20376;DHT22;10347;51.828;6.466;2022-09-03T10:40:39;25.00;72.60
20376;DHT22;10347;51.828;6.466;2022-09-03T10:56:24;25.40;72.60
20376;DHT22;10347;51.828;6.466;2022-09-03T11:01:31;25.50;71.20
20376;DHT22;10347;51.828;6.466;2022-09-03T11:07:00;25.60;71.50
20376;DHT22;10347;51.828;6.466;2022-09-03T11:12:21;25.80;70.60
20376;DHT22;10347;51.828;6.466;2022-09-03T11:15:02;25.80;69.80
20376;DHT22;10347;51.828;6.466;2022-09-03T11:17:36;25.80;71.00
20376;DHT22;10347;51.828;6.466;2022-09-03T11:22:40;25.90;70.40
20376;DHT22;10347;51.828;6.466;2022-09-03T11:25:07;25.90;69.50
20376;DHT22;10347;51.828;6.466;2022-09-03T11:30:34;25.90;71.30
20376;DHT22;10347;51.828;6.466;2022-09-03T11:33:08;26.00;71.30
20376;DHT22;10347;51.828;6.466;2022-09-03T11:43:34;26.20;69.40
20376;DHT22;10347;51.828;6.466;2022-09-03T11:48:37;26.20;69.00
20376;DHT22;10347;51.828;6.466;2022-09-03T11:51:03;26.20;69.80
20376;DHT22;10347;51.828;6.466;2022-09-03T11:53:34;26.30;70.60
20376;DHT22;10347;51.828;6.466;2022-09-03T11:56:15;26.40;70.30
20376;DHT22;10347;51.828;6.466;2022-09-03T11:58:41;26.50;70.40
20376;DHT22;10347;51.828;6.466;2022-09-03T12:01:10;26.50;69.80
20376;DHT22;10347;51.828;6.466;2022-09-03T12:03:50;26.60;69.90
20376;DHT22;10347;51.828;6.466;2022-09-03T12:07:12;26.60;69.10
20376;DHT22;10347;51.828;6.466;2022-09-03T12:09:39;26.70;69.50
20376;DHT22;10347;51.828;6.466;2022-09-03T12:17:33;26.80;68.60
20376;DHT22;10347;51.828;6.466;2022-09-03T12:20:01;26.90;69.10
20376;DHT22;10347;51.828;6.466;2022-09-03T12:22:29;27.00;68.90
20376;DHT22;10347;51.828;6.466;2022-09-03T12:25:05;27.00;68.40
20376;DHT22;10347;51.828;6.466;2022-09-03T12:27:32;27.10;67.30
20376;DHT22;10347;51.828;6.466;2022-09-03T12:30:00;27.00;67.20
20376;DHT22;10347;51.828;6.466;2022-09-03T12:32:28;27.10;67.70
20376;DHT22;10347;51.828;6.466;2022-09-03T12:34:57;27.10;67.60
20376;DHT22;10347;51.828;6.466;2022-09-03T12:37:24;27.20;67.30
20376;DHT22;10347;51.828;6.466;2022-09-03T12:39:54;27.10;67.60
20376;DHT22;10347;51.828;6.466;2022-09-03T12:42:29;27.20;66.80
20376;DHT22;10347;51.828;6.466;2022-09-03T12:45:06;27.20;65.70
20376;DHT22;10347;51.828;6.466;2022-09-03T12:47:38;27.20;65.50
20376;DHT22;10347;51.828;6.466;2022-09-03T12:50:13;27.20;65.60
20376;DHT22;10347;51.828;6.466;2022-09-03T12:55:25;27.20;65.90
20376;DHT22;10347;51.828;6.466;2022-09-03T12:58:14;27.30;66.00
20376;DHT22;10347;51.828;6.466;2022-09-03T13:00:53;27.30;66.40
20376;DHT22;10347;51.828;6.466;2022-09-03T13:03:49;27.40;65.50
20376;DHT22;10347;51.828;6.466;2022-09-03T13:06:21;27.50;66.00
20376;DHT22;10347;51.828;6.466;2022-09-03T13:09:07;27.50;66.30
20376;DHT22;10347;51.828;6.466;2022-09-03T13:11:34;27.50;65.90
20376;DHT22;10347;51.828;6.466;2022-09-03T13:14:04;27.60;66.10
20376;DHT22;10347;51.828;6.466;2022-09-03T13:19:34;27.70;65.90
20376;DHT22;10347;51.828;6.466;2022-09-03T13:25:08;27.70;65.10
20376;DHT22;10347;51.828;6.466;2022-09-03T13:27:38;27.70;65.70
20376;DHT22;10347;51.828;6.466;2022-09-03T13:30:15;27.70;65.90
20376;DHT22;10347;51.828;6.466;2022-09-03T13:36:02;27.90;66.60
20376;DHT22;10347;51.828;6.466;2022-09-03T13:38:54;27.90;65.40
20376;DHT22;10347;51.828;6.466;2022-09-03T13:41:37;28.00;66.00
20376;DHT22;10347;51.828;6.466;2022-09-03T13:44:19;28.10;66.60
20376;DHT22;10347;51.828;6.466;2022-09-03T13:47:08;28.10;65.20
20376;DHT22;10347;51.828;6.466;2022-09-03T13:49:46;28.10;66.60
20376;DHT22;10347;51.828;6.466;2022-09-03T13:58:03;28.10;65.00
20376;DHT22;10347;51.828;6.466;2022-09-03T14:00:53;28.10;65.40
20376;DHT22;10347;51.828;6.466;2022-09-03T14:08:48;28.00;64.30
20376;DHT22;10347;51.828;6.466;2022-09-03T14:11:29;28.00;64.70
20376;DHT22;10347;51.828;6.466;2022-09-03T14:19:15;28.30;65.10
20376;DHT22;10347;51.828;6.466;2022-09-03T14:21:46;28.30;64.80
20376;DHT22;10347;51.828;6.466;2022-09-03T14:24:30;28.30;65.50
20376;DHT22;10347;51.828;6.466;2022-09-03T14:27:00;28.40;67.20
20376;DHT22;10347;51.828;6.466;2022-09-03T14:29:32;28.50;67.80
20376;DHT22;10347;51.828;6.466;2022-09-03T14:32:26;28.50;68.10
20376;DHT22;10347;51.828;6.466;2022-09-03T14:35:16;28.60;69.40
20376;DHT22;10347;51.828;6.466;2022-09-03T14:46:14;28.90;68.30
20376;DHT22;10347;51.828;6.466;2022-09-03T15:00:03;29.10;68.00
20376;DHT22;10347;51.828;6.466;2022-09-03T15:03:24;29.20;67.50
20376;DHT22;10347;51.828;6.466;2022-09-03T15:11:21;29.20;66.90
20376;DHT22;10347;51.828;6.466;2022-09-03T15:22:43;29.30;66.30
20376;DHT22;10347;51.828;6.466;2022-09-03T15:28:48;29.40;66.40
20376;DHT22;10347;51.828;6.466;2022-09-03T15:36:57;29.40;65.40
20376;DHT22;10347;51.828;6.466;2022-09-03T15:39:36;29.40;66.60
20376;DHT22;10347;51.828;6.466;2022-09-03T15:42:28;29.50;66.10
20376;DHT22;10347;51.828;6.466;2022-09-03T15:45:07;29.50;65.60
20376;DHT22;10347;51.828;6.466;2022-09-03T15:47:53;29.50;65.90
20376;DHT22;10347;51.828;6.466;2022-09-03T15:50:48;29.50;65.60
20376;DHT22;10347;51.828;6.466;2022-09-03T15:53:33;29.50;64.70
20376;DHT22;10347;51.828;6.466;2022-09-03T15:56:24;29.50;64.80
20376;DHT22;10347;51.828;6.466;2022-09-03T16:07:02;29.50;65.20
20376;DHT22;10347;51.828;6.466;2022-09-03T16:09:58;29.50;64.70
20376;DHT22;10347;51.828;6.466;2022-09-03T16:15:29;29.50;64.70
20376;DHT22;10347;51.828;6.466;2022-09-03T16:20:47;29.50;64.60
20376;DHT22;10347;51.828;6.466;2022-09-03T16:26:02;29.50;64.90
20376;DHT22;10347;51.828;6.466;2022-09-03T16:28:51;29.50;64.10
20376;DHT22;10347;51.828;6.466;2022-09-03T16:31:29;29.50;65.00
20376;DHT22;10347;51.828;6.466;2022-09-03T16:40:08;29.50;64.20
20376;DHT22;10347;51.828;6.466;2022-09-03T16:45:34;29.40;64.50
20376;DHT22;10347;51.828;6.466;2022-09-03T16:53:30;29.40;64.30
20376;DHT22;10347;51.828;6.466;2022-09-03T17:12:09;29.30;64.20
20376;DHT22;10347;51.828;6.466;2022-09-03T17:20:45;29.30;64.10
20376;DHT22;10347;51.828;6.466;2022-09-03T17:26:46;29.30;63.50
20376;DHT22;10347;51.828;6.466;2022-09-03T17:43:46;29.20;64.20
20376;DHT22;10347;51.828;6.466;2022-09-03T17:49:06;29.10;64.90
20376;DHT22;10347;51.828;6.466;2022-09-03T17:51:45;29.10;65.30
20376;DHT22;10347;51.828;6.466;2022-09-03T17:57:04;29.00;65.00
20376;DHT22;10347;51.828;6.466;2022-09-03T18:05:25;28.80;65.20
20376;DHT22;10347;51.828;6.466;2022-09-03T18:10:50;28.70;65.20
20376;DHT22;10347;51.828;6.466;2022-09-03T18:13:44;28.70;66.20
20376;DHT22;10347;51.828;6.466;2022-09-03T18:18:46;28.60;67.40
20376;DHT22;10347;51.828;6.466;2022-09-03T18:21:22;28.50;68.00
20376;DHT22;10347;51.828;6.466;2022-09-03T18:24:16;28.50;68.40
20376;DHT22;10347;51.828;6.466;2022-09-03T18:27:18;28.40;68.70
20376;DHT22;10347;51.828;6.466;2022-09-03T18:30:08;28.30;69.30
20376;DHT22;10347;51.828;6.466;2022-09-03T18:32:53;28.20;69.50
20376;DHT22;10347;51.828;6.466;2022-09-03T18:35:37;28.20;69.70
20376;DHT22;10347;51.828;6.466;2022-09-03T18:38:33;28.10;69.80
20376;DHT22;10347;51.828;6.466;2022-09-03T18:44:41;28.00;70.30
20376;DHT22;10347;51.828;6.466;2022-09-03T18:54:06;27.70;71.60
20376;DHT22;10347;51.828;6.466;2022-09-03T18:56:54;27.60;72.00
20376;DHT22;10347;51.828;6.466;2022-09-03T19:00:08;27.60;71.90
20376;DHT22;10347;51.828;6.466;2022-09-03T19:08:43;27.40;72.20
20376;DHT22;10347;51.828;6.466;2022-09-03T19:14:55;27.20;73.40
20376;DHT22;10347;51.828;6.466;2022-09-03T19:20:30;27.00;73.30
20376;DHT22;10347;51.828;6.466;2022-09-03T19:23:15;27.00;73.80
20376;DHT22;10347;51.828;6.466;2022-09-03T19:26:18;26.90;73.70
20376;DHT22;10347;51.828;6.466;2022-09-03T19:29:15;26.90;73.90
20376;DHT22;10347;51.828;6.466;2022-09-03T19:32:08;26.80;74.10
20376;DHT22;10347;51.828;6.466;2022-09-03T19:38:03;26.70;74.00
20376;DHT22;10347;51.828;6.466;2022-09-03T19:41:16;26.60;74.10
20376;DHT22;10347;51.828;6.466;2022-09-03T19:44:30;26.60;74.10
20376;DHT22;10347;51.828;6.466;2022-09-03T19:50:36;26.40;74.60
20376;DHT22;10347;51.828;6.466;2022-09-03T19:53:24;26.30;74.70
20376;DHT22;10347;51.828;6.466;2022-09-03T19:56:17;26.30;75.00
20376;DHT22;10347;51.828;6.466;2022-09-03T19:59:07;26.20;75.30
20376;DHT22;10347;51.828;6.466;2022-09-03T20:01:52;26.10;75.50
20376;DHT22;10347;51.828;6.466;2022-09-03T20:05:01;26.00;75.60
20376;DHT22;10347;51.828;6.466;2022-09-03T20:07:45;25.90;75.80
20376;DHT22;10347;51.828;6.466;2022-09-03T20:10:33;25.90;76.90
20376;DHT22;10347;51.828;6.466;2022-09-03T20:18:45;25.80;77.70
20376;DHT22;10347;51.828;6.466;2022-09-03T20:21:38;25.70;78.20
20376;DHT22;10347;51.828;6.466;2022-09-03T20:40:51;25.30;81.40
20376;DHT22;10347;51.828;6.466;2022-09-03T20:47:02;25.30;81.20
20376;DHT22;10347;51.828;6.466;2022-09-03T20:52:15;25.20;83.60
20376;DHT22;10347;51.828;6.466;2022-09-03T20:57:30;25.00;84.30
20376;DHT22;10347;51.828;6.466;2022-09-03T21:00:05;25.00;84.70
20376;DHT22;10347;51.828;6.466;2022-09-03T21:11:25;24.80;87.20
20376;DHT22;10347;51.828;6.466;2022-09-03T21:14:15;24.80;87.30
20376;DHT22;10347;51.828;6.466;2022-09-03T21:20:02;24.70;88.60
20376;DHT22;10347;51.828;6.466;2022-09-03T21:23:19;24.70;87.40
20376;DHT22;10347;51.828;6.466;2022-09-03T21:25:28;24.60;88.40
20376;DHT22;10347;51.828;6.466;2022-09-03T21:28:08;24.60;88.70
20376;DHT22;10347;51.828;6.466;2022-09-03T21:30:39;24.60;90.20
20376;DHT22;10347;51.828;6.466;2022-09-03T21:33:18;24.50;89.80
20376;DHT22;10347;51.828;6.466;2022-09-03T21:35:49;24.50;90.70
20376;DHT22;10347;51.828;6.466;2022-09-03T21:38:24;24.40;90.20
20376;DHT22;10347;51.828;6.466;2022-09-03T21:43:47;24.30;91.00
20376;DHT22;10347;51.828;6.466;2022-09-03T21:46:24;24.30;90.50
20376;DHT22;10347;51.828;6.466;2022-09-03T21:48:58;24.30;91.20
20376;DHT22;10347;51.828;6.466;2022-09-03T21:54:00;24.20;91.30
20376;DHT22;10347;51.828;6.466;2022-09-03T21:59:33;24.20;92.20
20376;DHT22;10347;51.828;6.466;2022-09-03T22:02:11;24.10;92.30
20376;DHT22;10347;51.828;6.466;2022-09-03T22:04:40;24.10;92.30
20376;DHT22;10347;51.828;6.466;2022-09-03T22:09:53;24.00;92.50
20376;DHT22;10347;51.828;6.466;2022-09-03T22:15:11;23.90;93.10
20376;DHT22;10347;51.828;6.466;2022-09-03T22:17:50;23.90;93.10
20376;DHT22;10347;51.828;6.466;2022-09-03T22:20:22;23.90;93.60